Time;durP1;ratioP1;P1;durP2;ratioP2;P2;SDS_P1;SDS_P2;PMS_P1;PMS_P2;Temp;Humidity;BMP_temperature;BMP_pressure;BME280_temperature;BME280_humidity;BME280_pressure;Samples;Min_cycle;Max_cycle;Signal;HPM_P1;HPM_P2
2022/12/18 00:00:09;;;;;;;11.20;10.00;;;-4.00;91.70;;;;;;5078746;28;20429;-67
2022/12/18 00:02:36;;;;;;;13.38;11.23;;;-4.00;91.70;;;;;;5081539;28;20431;-67
2022/12/18 00:05:02;;;;;;;12.10;10.85;;;-4.00;91.60;;;;;;5075110;28;20835;-67
2022/12/18 00:07:29;;;;;;;12.18;10.65;;;-4.00;91.70;;;;;;5081822;28;20427;-66
2022/12/18 00:09:56;;;;;;;12.50;11.02;;;-4.00;91.70;;;;;;5075043;28;20427;-68
2022/12/18 00:12:22;;;;;;;12.60;10.95;;;-4.00;91.80;;;;;;5074588;28;20935;-68
2022/12/18 00:14:49;;;;;;;11.32;10.13;;;-4.00;91.80;;;;;;5067958;28;20450;-68
2022/12/18 00:17:17;;;;;;;11.10;10.00;;;-4.00;91.70;;;;;;5083749;28;20454;-68
2022/12/18 00:19:44;;;;;;;12.73;10.57;;;-4.00;91.80;;;;;;5076187;28;20442;-68
2022/12/18 00:22:11;;;;;;;12.95;10.90;;;-4.00;92.00;;;;;;5067640;28;20422;-68
2022/12/18 00:24:37;;;;;;;12.03;10.20;;;-4.00;92.20;;;;;;5075612;28;20917;-67
2022/12/18 00:27:04;;;;;;;13.25;11.40;;;-4.00;92.20;;;;;;5080946;28;20421;-66
2022/12/18 00:29:31;;;;;;;11.13;9.93;;;-4.00;92.10;;;;;;5075585;28;20435;-66
2022/12/18 00:31:57;;;;;;;13.25;11.07;;;-4.00;91.90;;;;;;5080293;28;20438;-66
2022/12/18 00:34:26;;;;;;;12.10;10.50;;;-4.00;92.00;;;;;;5074998;28;20419;-66
2022/12/18 00:36:53;;;;;;;12.20;10.90;;;-4.00;92.00;;;;;;5069723;28;20503;-66
2022/12/18 00:39:19;;;;;;;12.95;10.90;;;-4.00;92.10;;;;;;5083549;28;20920;-66
2022/12/18 00:44:30;;;;;;;12.27;10.50;;;-4.00;92.00;;;;;;5082148;28;20460;-66
2022/12/18 00:46:57;;;;;;;14.02;11.85;;;-4.00;92.10;;;;;;5088167;28;20426;-67
2022/12/18 00:49:23;;;;;;;12.15;10.95;;;-4.00;92.00;;;;;;5087884;28;20433;-66
2022/12/18 00:51:51;;;;;;;12.30;10.82;;;-4.00;92.00;;;;;;5086528;28;20441;-67
2022/12/18 00:54:18;;;;;;;12.05;10.85;;;-4.00;92.00;;;;;;5074038;28;20428;-67
2022/12/18 00:56:45;;;;;;;12.63;10.70;;;-4.00;91.90;;;;;;5084257;28;20815;-67
2022/12/18 00:59:12;;;;;;;11.40;9.70;;;-4.00;91.90;;;;;;5087891;28;20458;-67
2022/12/18 01:01:39;;;;;;;11.88;10.20;;;-4.00;91.90;;;;;;5082567;28;20789;-67
2022/12/18 01:04:05;;;;;;;11.70;10.50;;;-4.00;91.90;;;;;;5083620;28;20444;-67
2022/12/18 01:06:32;;;;;;;12.90;11.07;;;-4.00;92.00;;;;;;5080030;28;20435;-67
2022/12/18 01:09:00;;;;;;;12.00;10.80;;;-4.00;91.80;;;;;;5076638;28;21049;-67
2022/12/18 01:11:27;;;;;;;14.93;11.63;;;-4.00;91.70;;;;;;5087769;28;20414;-68
2022/12/18 01:13:55;;;;;;;12.57;11.27;;;-4.10;91.60;;;;;;5086003;28;20425;-67
2022/12/18 01:16:22;;;;;;;11.67;10.47;;;-4.10;91.60;;;;;;5084647;28;20441;-67
2022/12/18 01:18:54;;;;;;;12.57;10.90;;;-4.10;91.70;;;;;;5087499;28;20500;-67
2022/12/18 01:21:21;;;;;;;12.27;11.02;;;-4.10;91.80;;;;;;5087767;28;20413;-68
2022/12/18 01:23:52;;;;;;;12.75;11.50;;;-4.10;91.90;;;;;;5078348;28;20446;-68
2022/12/18 01:26:21;;;;;;;12.97;11.67;;;-4.10;91.90;;;;;;5082251;28;20503;-67
2022/12/18 01:28:47;;;;;;;12.60;11.30;;;-4.10;91.90;;;;;;5084997;28;20419;-67
2022/12/18 01:31:17;;;;;;;12.38;11.10;;;-4.10;91.70;;;;;;5072188;28;20820;-67
2022/12/18 01:33:44;;;;;;;13.60;11.20;;;-4.10;91.70;;;;;;5082474;28;20888;-67
2022/12/18 01:36:17;;;;;;;13.52;11.10;;;-4.00;91.60;;;;;;5071505;28;21152;-67
2022/12/18 01:38:44;;;;;;;12.95;11.35;;;-4.10;91.50;;;;;;5082430;28;20433;-68
2022/12/18 01:41:11;;;;;;;13.20;11.90;;;-4.10;91.50;;;;;;5088706;28;20439;-67
2022/12/18 01:44:00;;;;;;;12.80;11.45;;;-4.10;91.50;;;;;;5088583;28;20429;-67
2022/12/18 01:46:28;;;;;;;12.27;10.98;;;-4.10;91.60;;;;;;5085076;28;20422;-67
2022/12/18 01:48:58;;;;;;;13.05;11.75;;;-4.20;91.80;;;;;;5082111;28;20427;-67
2022/12/18 01:51:26;;;;;;;13.00;11.38;;;-4.20;92.00;;;;;;5081971;28;20435;-67
2022/12/18 01:53:53;;;;;;;12.18;10.88;;;-4.20;92.00;;;;;;5086039;28;20441;-67
2022/12/18 01:56:23;;;;;;;13.00;11.40;;;-4.20;91.70;;;;;;5084728;28;20457;-67
2022/12/18 01:58:56;;;;;;;12.85;11.10;;;-4.10;91.50;;;;;;5091294;28;20416;-68
2022/12/18 02:01:25;;;;;;;12.70;10.75;;;-4.10;91.40;;;;;;5092585;28;20767;-67
2022/12/18 02:03:52;;;;;;;12.50;11.20;;;-4.10;91.30;;;;;;5082286;28;20438;-67
2022/12/18 02:06:26;;;;;;;12.48;11.18;;;-4.10;91.40;;;;;;5082405;28;20437;-67
2022/12/18 02:09:02;;;;;;;12.50;11.20;;;-4.10;91.50;;;;;;5081245;28;20795;-67
2022/12/18 02:11:41;;;;;;;12.27;10.80;;;-4.10;91.40;;;;;;5085451;28;20851;-67
2022/12/18 02:14:19;;;;;;;11.55;10.45;;;-4.10;91.30;;;;;;5088848;28;20410;-67
2022/12/18 02:16:53;;;;;;;12.10;10.53;;;-4.10;91.30;;;;;;5089849;28;20551;-68
2022/12/18 02:19:43;;;;;;;12.55;10.90;;;-4.10;91.30;;;;;;5080427;28;20768;-67
2022/12/18 02:22:24;;;;;;;13.18;11.88;;;-4.10;91.30;;;;;;5070168;28;20416;-68
2022/12/18 02:25:05;;;;;;;12.52;11.15;;;-4.00;91.30;;;;;;5085103;28;20444;-67
2022/12/18 02:27:36;;;;;;;12.27;11.02;;;-4.10;91.40;;;;;;5090294;28;20410;-67
2022/12/18 02:30:05;;;;;;;11.70;10.48;;;-4.10;91.50;;;;;;5090148;28;20413;-67
2022/12/18 02:32:35;;;;;;;12.15;10.85;;;-4.10;91.30;;;;;;5077645;28;20429;-68
2022/12/18 02:35:05;;;;;;;12.07;10.75;;;-4.00;91.20;;;;;;5083396;28;20920;-67
2022/12/18 02:37:34;;;;;;;12.68;10.63;;;-4.10;91.10;;;;;;5091390;28;20489;-67
2022/12/18 02:40:02;;;;;;;11.50;10.15;;;-4.00;91.00;;;;;;5078846;28;20431;-67
2022/12/18 02:42:29;;;;;;;12.20;10.90;;;-4.00;91.00;;;;;;5075069;28;20418;-66
2022/12/18 02:44:57;;;;;;;12.57;11.07;;;-4.00;91.00;;;;;;5086799;28;20406;-69
2022/12/18 02:47:28;;;;;;;12.02;10.82;;;-4.00;91.10;;;;;;5088308;28;20805;-67
2022/12/18 02:50:03;;;;;;;12.37;10.60;;;-4.00;91.00;;;;;;5088445;28;20516;-66
2022/12/18 02:52:36;;;;;;;12.77;10.57;;;-4.00;90.90;;;;;;5074954;28;20506;-67
2022/12/18 02:55:14;;;;;;;13.65;11.45;;;-4.10;90.90;;;;;;5073473;28;20431;-67
2022/12/18 02:57:47;;;;;;;11.65;10.45;;;-4.10;91.20;;;;;;5086028;28;20421;-66
2022/12/18 03:00:18;;;;;;;12.32;11.02;;;-4.10;91.10;;;;;;5085026;28;20427;-67
2022/12/18 03:02:49;;;;;;;13.13;10.57;;;-4.10;91.10;;;;;;5086218;28;20429;-66
2022/12/18 03:05:18;;;;;;;12.43;11.13;;;-4.10;90.90;;;;;;5078328;28;20462;-66
2022/12/18 03:07:49;;;;;;;12.02;10.82;;;-4.10;90.60;;;;;;5080420;28;20431;-67
2022/12/18 03:10:21;;;;;;;11.60;10.25;;;-4.10;90.90;;;;;;5075982;28;20432;-66
2022/12/18 03:12:53;;;;;;;12.03;10.70;;;-4.10;90.90;;;;;;5077955;28;20452;-66
2022/12/18 03:15:25;;;;;;;10.57;9.40;;;-4.10;90.90;;;;;;5069171;28;20420;-66
2022/12/18 03:17:56;;;;;;;11.13;9.93;;;-4.10;90.90;;;;;;5082424;28;20449;-67
2022/12/18 03:20:26;;;;;;;11.98;10.57;;;-4.10;90.70;;;;;;5089588;28;20452;-66
2022/12/18 03:22:58;;;;;;;11.82;10.63;;;-4.10;90.70;;;;;;5081044;28;20429;-66
2022/12/18 03:25:26;;;;;;;12.50;11.07;;;-4.10;90.60;;;;;;5088594;28;20887;-67
2022/12/18 03:27:57;;;;;;;12.10;10.80;;;-4.10;90.70;;;;;;5080751;28;21063;-66
2022/12/18 03:30:29;;;;;;;12.35;11.15;;;-4.10;90.80;;;;;;5068900;28;20411;-67
2022/12/18 03:33:06;;;;;;;12.13;10.83;;;-4.10;90.90;;;;;;5079877;28;20503;-67
2022/12/18 03:35:37;;;;;;;11.70;10.52;;;-4.10;90.90;;;;;;5081824;28;20431;-67
2022/12/18 03:38:03;;;;;;;12.50;10.85;;;-4.10;91.00;;;;;;5084356;28;20928;-66
2022/12/18 03:40:41;;;;;;;11.30;10.10;;;-4.10;91.10;;;;;;5076595;28;20435;-67
2022/12/18 03:43:11;;;;;;;11.20;10.00;;;-4.10;91.00;;;;;;5079363;28;20415;-67
2022/12/18 03:45:52;;;;;;;11.60;10.50;;;-4.10;91.00;;;;;;5090219;28;20429;-67
2022/12/18 03:48:27;;;;;;;11.07;9.85;;;-4.10;91.10;;;;;;5083110;28;20964;-67
2022/12/18 03:50:58;;;;;;;12.02;10.80;;;-4.10;91.10;;;;;;5086182;28;20413;-68
2022/12/18 03:53:33;;;;;;;11.35;10.15;;;-4.10;91.40;;;;;;5087179;28;20434;-68
2022/12/18 03:56:01;;;;;;;11.88;10.38;;;-4.00;90.90;;;;;;5078735;28;20897;-67
2022/12/18 03:58:30;;;;;;;11.60;10.40;;;-4.00;90.90;;;;;;5088687;28;20429;-67
2022/12/18 04:01:02;;;;;;;13.83;10.70;;;-4.10;90.90;;;;;;5081903;28;20842;-66
2022/12/18 04:03:31;;;;;;;11.05;9.90;;;-4.10;90.80;;;;;;5076489;28;20426;-69
2022/12/18 04:06:00;;;;;;;11.45;10.30;;;-4.10;90.80;;;;;;5068123;28;20427;-67
2022/12/18 04:08:28;;;;;;;11.95;10.60;;;-4.10;90.70;;;;;;5073757;28;20422;-67
2022/12/18 04:10:55;;;;;;;13.43;11.40;;;-4.10;90.60;;;;;;5076802;28;20423;-67
2022/12/18 04:13:25;;;;;;;11.70;10.57;;;-4.10;90.80;;;;;;5080566;28;20413;-66
2022/12/18 04:15:52;;;;;;;13.10;11.27;;;-4.20;90.90;;;;;;5088618;28;20420;-67
2022/12/18 04:18:20;;;;;;;11.18;9.98;;;-4.20;90.90;;;;;;5090443;28;20430;-66
2022/12/18 04:20:47;;;;;;;13.48;12.07;;;-4.20;90.90;;;;;;5099581;28;20426;-66
2022/12/18 04:23:14;;;;;;;13.80;11.18;;;-4.20;90.80;;;;;;5096328;28;20944;-67
2022/12/18 04:25:41;;;;;;;13.15;11.75;;;-4.20;90.80;;;;;;5104319;28;20417;-66
2022/12/18 04:28:08;;;;;;;13.43;11.85;;;-4.20;90.80;;;;;;5094616;28;20410;-66
2022/12/18 04:30:34;;;;;;;12.57;11.38;;;-4.20;90.80;;;;;;5099084;28;20416;-66
2022/12/18 04:33:01;;;;;;;12.85;11.45;;;-4.20;90.80;;;;;;5107121;28;20425;-66
2022/12/18 04:35:29;;;;;;;12.60;11.30;;;-4.20;90.80;;;;;;5092672;28;20402;-66
2022/12/18 04:37:56;;;;;;;14.40;12.90;;;-4.20;90.80;;;;;;5090660;28;20467;-66
2022/12/18 04:40:23;;;;;;;13.30;11.90;;;-4.30;90.90;;;;;;5098057;28;20937;-66
2022/12/18 04:42:50;;;;;;;13.25;11.63;;;-4.30;90.80;;;;;;5095821;28;20413;-66
2022/12/18 04:45:17;;;;;;;13.80;12.25;;;-4.30;90.80;;;;;;5090428;28;20831;-67
2022/12/18 04:47:44;;;;;;;13.25;11.82;;;-4.30;90.80;;;;;;5080764;28;20468;-68
2022/12/18 04:50:10;;;;;;;14.30;12.38;;;-4.40;90.90;;;;;;5069752;28;20415;-67
2022/12/18 04:52:39;;;;;;;14.45;12.90;;;-4.40;91.00;;;;;;5077603;28;20440;-66
2022/12/18 04:55:06;;;;;;;12.98;11.57;;;-4.40;91.10;;;;;;5087722;28;20421;-66
2022/12/18 04:57:32;;;;;;;14.20;11.60;;;-4.40;91.10;;;;;;5087512;28;20939;-66
2022/12/18 04:59:59;;;;;;;14.43;12.87;;;-4.40;91.20;;;;;;5078694;28;20419;-66
2022/12/18 05:02:26;;;;;;;14.05;12.55;;;-4.40;91.20;;;;;;5091108;28;20433;-66
2022/12/18 05:04:53;;;;;;;13.03;11.63;;;-4.40;91.30;;;;;;5092355;28;20421;-66
2022/12/18 05:07:20;;;;;;;13.35;11.95;;;-4.40;91.30;;;;;;5083183;28;20433;-66
2022/12/18 05:09:48;;;;;;;15.27;12.85;;;-4.40;91.30;;;;;;5078988;28;20427;-67
2022/12/18 05:12:15;;;;;;;15.30;13.30;;;-4.40;91.40;;;;;;5083602;28;20434;-67
2022/12/18 05:14:41;;;;;;;14.10;12.20;;;-4.40;91.40;;;;;;5088102;28;20421;-67
2022/12/18 05:17:08;;;;;;;13.73;12.32;;;-4.40;91.60;;;;;;5093498;28;20425;-67
2022/12/18 05:19:35;;;;;;;13.90;11.82;;;-4.40;91.50;;;;;;5092601;28;20429;-67
2022/12/18 05:22:02;;;;;;;13.35;11.95;;;-4.30;91.50;;;;;;5090614;28;20780;-67
2022/12/18 05:24:29;;;;;;;14.50;12.50;;;-4.30;91.60;;;;;;5078582;28;20455;-67
2022/12/18 05:26:57;;;;;;;13.85;12.35;;;-4.30;91.50;;;;;;5072922;28;20490;-66
2022/12/18 05:29:23;;;;;;;13.10;11.70;;;-4.30;91.60;;;;;;5086236;28;20417;-66
2022/12/18 05:31:50;;;;;;;14.25;12.60;;;-4.30;91.60;;;;;;5092057;28;20430;-67
2022/12/18 05:34:17;;;;;;;13.50;12.10;;;-4.30;91.60;;;;;;5082446;28;20436;-66
2022/12/18 05:36:44;;;;;;;13.97;11.93;;;-4.30;91.60;;;;;;5081739;28;20439;-67
2022/12/18 05:39:11;;;;;;;12.90;11.55;;;-4.30;91.50;;;;;;5079825;28;20415;-67
2022/12/18 05:41:37;;;;;;;12.32;11.02;;;-4.20;91.50;;;;;;5071706;28;20439;-67
2022/12/18 05:44:06;;;;;;;13.85;12.05;;;-4.20;91.40;;;;;;5079772;28;20441;-67
2022/12/18 05:46:33;;;;;;;13.70;12.25;;;-4.20;91.40;;;;;;5091657;28;20931;-67
2022/12/18 05:49:01;;;;;;;14.38;11.95;;;-4.20;91.40;;;;;;5088976;28;20426;-67
2022/12/18 05:51:28;;;;;;;14.18;11.93;;;-4.20;91.40;;;;;;5080031;28;20901;-67
2022/12/18 05:53:55;;;;;;;14.25;12.38;;;-4.20;91.40;;;;;;5131036;22;20440;-71
2022/12/18 05:56:23;;;;;;;13.30;11.90;;;-4.20;91.50;;;;;;5125237;27;20432;-72
2022/12/18 05:58:53;;;;;;;13.63;12.23;;;-4.20;91.60;;;;;;5119667;27;20428;-71
2022/12/18 06:01:23;;;;;;;12.48;11.18;;;-4.10;91.70;;;;;;5129781;27;20430;-72
2022/12/18 06:03:50;;;;;;;13.67;12.00;;;-4.10;91.70;;;;;;5126147;27;20431;-72
2022/12/18 06:06:19;;;;;;;13.60;12.20;;;-4.10;91.60;;;;;;5099198;28;20531;-73
2022/12/18 06:08:46;;;;;;;14.00;12.03;;;-4.10;91.60;;;;;;5089374;27;20760;-73
2022/12/18 06:11:14;;;;;;;14.27;12.82;;;-4.00;91.60;;;;;;5093793;28;20540;-73
2022/12/18 06:13:41;;;;;;;13.77;12.27;;;-4.00;91.50;;;;;;5092848;28;20800;-72
2022/12/18 06:16:08;;;;;;;13.87;12.17;;;-4.00;91.40;;;;;;5096020;27;20606;-73
2022/12/18 06:18:38;;;;;;;14.38;12.50;;;-4.10;91.30;;;;;;5097848;28;20478;-73
2022/12/18 06:21:04;;;;;;;14.07;12.68;;;-4.10;91.20;;;;;;5098406;28;20426;-73
2022/12/18 06:23:31;;;;;;;15.70;13.30;;;-4.10;91.30;;;;;;5094120;28;20422;-72
2022/12/18 06:25:58;;;;;;;14.00;12.55;;;-4.10;91.40;;;;;;5101395;28;20452;-73
2022/12/18 06:28:25;;;;;;;13.98;12.48;;;-4.10;91.40;;;;;;5096578;27;20393;-72
2022/12/18 06:30:52;;;;;;;15.35;13.13;;;-4.10;91.30;;;;;;5111494;27;20430;-73
2022/12/18 06:33:19;;;;;;;13.50;12.10;;;-4.20;91.30;;;;;;5101465;27;20485;-73
2022/12/18 06:35:47;;;;;;;14.55;12.50;;;-4.20;91.40;;;;;;5094427;28;20752;-72
2022/12/18 06:38:14;;;;;;;14.70;12.70;;;-4.20;91.30;;;;;;5086782;28;20413;-72
2022/12/18 06:40:41;;;;;;;13.70;12.10;;;-4.20;91.20;;;;;;5090734;28;20428;-72
2022/12/18 06:43:07;;;;;;;14.35;12.68;;;-4.30;91.30;;;;;;5095515;28;20772;-72
2022/12/18 06:45:35;;;;;;;14.40;12.32;;;-4.30;91.30;;;;;;5087874;28;20418;-73
2022/12/18 06:48:02;;;;;;;14.10;12.53;;;-4.30;91.40;;;;;;5090370;27;20425;-73
2022/12/18 06:50:29;;;;;;;14.27;12.52;;;-4.20;91.40;;;;;;5096510;28;20424;-72
2022/12/18 06:52:57;;;;;;;15.10;12.93;;;-4.30;91.40;;;;;;5095352;27;20519;-73
2022/12/18 06:55:23;;;;;;;15.25;13.60;;;-4.30;91.40;;;;;;5098867;28;20545;-73
2022/12/18 06:57:50;;;;;;;15.23;13.70;;;-4.40;91.60;;;;;;5086377;28;20451;-72
2022/12/18 07:00:18;;;;;;;14.55;12.75;;;-4.40;91.70;;;;;;5088551;28;20414;-72
2022/12/18 07:02:44;;;;;;;15.23;13.63;;;-4.40;91.70;;;;;;5099876;27;20447;-72
2022/12/18 07:05:11;;;;;;;15.83;14.20;;;-4.50;91.80;;;;;;5093186;28;21114;-71
2022/12/18 07:07:38;;;;;;;14.30;12.85;;;-4.50;91.90;;;;;;5097001;27;20416;-71
2022/12/18 07:10:06;;;;;;;14.73;13.07;;;-4.50;91.80;;;;;;5096767;28;20416;-70
2022/12/18 07:12:33;;;;;;;14.85;13.25;;;-4.50;91.60;;;;;;5091692;28;20418;-71
2022/12/18 07:15:00;;;;;;;14.77;13.20;;;-4.60;91.50;;;;;;5095525;28;20465;-71
2022/12/18 07:17:27;;;;;;;15.23;13.68;;;-4.60;91.60;;;;;;5104413;28;20617;-71
2022/12/18 07:19:53;;;;;;;15.23;13.73;;;-4.70;91.80;;;;;;5096128;28;20517;-71
2022/12/18 07:22:20;;;;;;;15.05;13.45;;;-4.70;91.90;;;;;;5094851;27;20425;-70
2022/12/18 07:24:47;;;;;;;15.38;13.45;;;-4.70;91.90;;;;;;5101219;28;20495;-72
2022/12/18 07:27:15;;;;;;;16.10;13.30;;;-4.70;92.00;;;;;;5119033;28;20483;-70
2022/12/18 07:29:41;;;;;;;15.48;13.88;;;-4.70;92.00;;;;;;5113209;28;20404;-71
2022/12/18 07:32:08;;;;;;;15.38;13.77;;;-4.70;92.00;;;;;;5090207;28;20806;-69
2022/12/18 07:34:35;;;;;;;15.07;13.48;;;-4.80;92.10;;;;;;5102330;28;20459;-69
2022/12/18 07:37:02;;;;;;;15.77;13.70;;;-4.80;92.50;;;;;;5106488;28;20412;-69
2022/12/18 07:39:29;;;;;;;16.02;14.10;;;-4.70;92.30;;;;;;5090664;28;20440;-69
2022/12/18 07:44:41;;;;;;;15.45;13.70;;;-4.70;92.30;;;;;;5091093;28;20428;-71
2022/12/18 07:47:07;;;;;;;15.70;14.00;;;-4.70;92.30;;;;;;5097533;28;20443;-70
2022/12/18 07:49:34;;;;;;;16.45;14.10;;;-4.70;92.40;;;;;;5095596;28;20488;-72
2022/12/18 07:52:01;;;;;;;16.67;14.20;;;-4.70;92.40;;;;;;5100956;28;20435;-71
2022/12/18 07:54:28;;;;;;;15.32;13.73;;;-4.70;92.60;;;;;;5090294;28;20452;-71
2022/12/18 07:56:55;;;;;;;15.98;14.20;;;-4.70;92.60;;;;;;5117874;27;20436;-71
2022/12/18 07:59:22;;;;;;;15.65;14.00;;;-4.60;92.60;;;;;;5090690;27;20851;-71
2022/12/18 08:01:50;;;;;;;15.55;13.95;;;-4.60;92.50;;;;;;5098880;28;20416;-71
2022/12/18 08:04:17;;;;;;;14.70;13.10;;;-4.50;92.40;;;;;;5098682;28;20459;-71
2022/12/18 08:06:43;;;;;;;14.77;13.00;;;-4.50;92.30;;;;;;5118289;28;20439;-72
2022/12/18 08:09:11;;;;;;;15.20;13.63;;;-4.50;92.40;;;;;;5109836;28;20408;-72
2022/12/18 08:11:38;;;;;;;15.70;13.85;;;-4.40;92.30;;;;;;5111876;28;20433;-72
2022/12/18 08:14:04;;;;;;;15.45;13.85;;;-4.30;92.30;;;;;;5106339;28;20410;-71
2022/12/18 08:16:31;;;;;;;16.50;13.87;;;-4.20;92.10;;;;;;5101990;27;20431;-72
2022/12/18 08:18:59;;;;;;;15.75;13.52;;;-4.20;92.00;;;;;;5103231;28;20786;-73
2022/12/18 08:21:28;;;;;;;14.60;13.10;;;-4.10;92.00;;;;;;5097073;28;20431;-73
2022/12/18 08:23:57;;;;;;;15.20;13.70;;;-4.00;91.90;;;;;;5098697;28;20909;-71
2022/12/18 08:26:26;;;;;;;14.60;13.00;;;-3.80;92.20;;;;;;5097508;28;20445;-71
2022/12/18 08:28:54;;;;;;;15.20;13.60;;;-3.70;91.70;;;;;;5099308;28;20503;-71
2022/12/18 08:31:22;;;;;;;15.05;12.98;;;-3.50;91.20;;;;;;5099760;28;20927;-72
2022/12/18 08:33:50;;;;;;;14.20;12.70;;;-3.30;90.30;;;;;;5088124;28;20802;-71
2022/12/18 08:36:18;;;;;;;14.68;13.07;;;-3.30;90.00;;;;;;5090536;28;20547;-71
2022/12/18 08:38:45;;;;;;;14.88;13.27;;;-3.20;89.60;;;;;;5099250;28;20424;-71
2022/12/18 08:41:14;;;;;;;14.60;13.00;;;-3.20;89.00;;;;;;5099190;28;21035;-72
2022/12/18 08:46:27;;;;;;;14.02;12.52;;;-3.00;89.00;;;;;;5102338;27;20501;-71
2022/12/18 08:48:55;;;;;;;14.65;13.05;;;-2.90;87.80;;;;;;5085957;28;20441;-72
2022/12/18 08:51:23;;;;;;;15.43;13.13;;;-2.80;87.50;;;;;;5096274;28;20483;-72
2022/12/18 08:53:50;;;;;;;14.68;13.18;;;-2.80;87.40;;;;;;5090048;28;20430;-72
2022/12/18 08:56:17;;;;;;;13.95;12.55;;;-2.60;87.30;;;;;;5096691;28;20509;-72
2022/12/18 08:58:44;;;;;;;13.35;11.95;;;-2.50;86.30;;;;;;5096961;28;20458;-72
2022/12/18 09:01:12;;;;;;;13.30;11.90;;;-2.50;85.60;;;;;;5097962;28;20426;-72
2022/12/18 09:03:39;;;;;;;13.90;12.18;;;-2.30;85.90;;;;;;5097907;28;20959;-71
2022/12/18 09:06:06;;;;;;;14.02;11.98;;;-2.20;84.60;;;;;;5095467;28;20786;-73
2022/12/18 09:08:34;;;;;;;13.18;11.63;;;-2.10;83.60;;;;;;5102999;28;20435;-72
2022/12/18 09:11:01;;;;;;;13.07;11.68;;;-2.10;83.40;;;;;;5097483;28;20439;-73
2022/12/18 09:13:28;;;;;;;12.32;11.13;;;-2.00;83.90;;;;;;5096121;28;20420;-72
2022/12/18 09:15:56;;;;;;;13.55;12.10;;;-2.00;82.70;;;;;;5100171;28;20428;-72
2022/12/18 09:18:24;;;;;;;12.68;11.38;;;-2.00;82.50;;;;;;5109773;28;20435;-71
2022/12/18 09:20:52;;;;;;;13.05;11.65;;;-2.00;82.80;;;;;;5090705;28;20433;-72
2022/12/18 09:23:19;;;;;;;12.10;10.80;;;-1.90;82.60;;;;;;5096322;28;20524;-72
2022/12/18 09:25:47;;;;;;;12.33;10.50;;;-1.90;82.30;;;;;;5088015;28;20424;-71
2022/12/18 09:28:15;;;;;;;13.18;11.57;;;-1.90;81.70;;;;;;5091353;28;20412;-74
2022/12/18 09:30:44;;;;;;;12.60;11.30;;;-1.90;82.10;;;;;;5098480;28;20513;-73
2022/12/18 09:33:11;;;;;;;12.60;11.25;;;-1.70;82.00;;;;;;5102196;28;20876;-72
2022/12/18 09:35:38;;;;;;;13.57;12.18;;;-1.60;81.50;;;;;;5093967;28;20448;-72
2022/12/18 09:38:05;;;;;;;12.15;10.88;;;-1.40;80.30;;;;;;5102229;28;20743;-72
2022/12/18 09:40:37;;;;;;;12.82;11.52;;;-1.40;79.60;;;;;;5103222;28;20889;-71
2022/12/18 09:43:06;;;;;;;13.32;12.02;;;-1.30;79.90;;;;;;5087313;28;20540;-73
2022/12/18 09:45:41;;;;;;;12.60;11.30;;;-1.10;80.30;;;;;;5096931;28;20489;-73
2022/12/18 09:48:16;;;;;;;11.98;10.68;;;-1.00;77.40;;;;;;5102556;28;20467;-72
2022/12/18 09:50:43;;;;;;;12.02;10.73;;;-1.10;77.50;;;;;;5094715;28;20422;-73
2022/12/18 09:53:16;;;;;;;12.05;10.65;;;-1.20;77.80;;;;;;5098735;28;21139;-72
2022/12/18 09:55:45;;;;;;;12.15;10.88;;;-1.10;78.10;;;;;;5099841;28;20725;-72
2022/12/18 09:58:20;;;;;;;12.65;11.35;;;-1.00;77.60;;;;;;5098237;27;20523;-73
2022/12/18 10:00:46;;;;;;;13.82;11.70;;;-1.00;76.80;;;;;;5096096;28;20428;-73
2022/12/18 10:03:15;;;;;;;14.15;12.20;;;-1.00;77.00;;;;;;5101318;28;20420;-71
2022/12/18 10:05:50;;;;;;;12.13;10.90;;;-1.00;77.10;;;;;;5106563;28;20522;-72
2022/12/18 10:08:23;;;;;;;12.68;11.38;;;-1.10;77.40;;;;;;5103927;28;20413;-71
2022/12/18 10:10:52;;;;;;;13.63;12.23;;;-1.10;77.50;;;;;;5108133;27;20428;-73
2022/12/18 10:13:32;;;;;;;13.65;11.40;;;-1.00;78.20;;;;;;5108846;28;20489;-71
2022/12/18 10:16:14;;;;;;;12.32;11.02;;;-0.90;77.80;;;;;;5104154;28;20477;-73
2022/12/18 10:19:09;;;;;;;13.93;12.00;;;-0.90;76.70;;;;;;5100776;28;20439;-72
2022/12/18 10:21:42;;;;;;;12.27;10.90;;;-0.90;76.60;;;;;;5090344;28;20431;-72
2022/12/18 10:24:15;;;;;;;12.50;11.20;;;-0.80;77.60;;;;;;5099742;28;20772;-72
2022/12/18 10:26:43;;;;;;;13.13;11.80;;;-0.80;76.40;;;;;;5095147;28;20415;-71
2022/12/18 10:29:14;;;;;;;13.17;11.87;;;-0.80;76.40;;;;;;5106262;27;20898;-72
2022/12/18 10:31:41;;;;;;;13.03;11.63;;;-0.70;76.40;;;;;;5097437;28;20432;-72
2022/12/18 10:34:11;;;;;;;13.00;11.27;;;-0.60;76.30;;;;;;5095814;28;20895;-74
2022/12/18 10:36:38;;;;;;;13.07;11.68;;;-0.50;75.70;;;;;;5098817;28;20432;-73
2022/12/18 10:39:16;;;;;;;13.70;11.70;;;-0.50;74.90;;;;;;5101663;28;20429;-73
2022/12/18 10:41:43;;;;;;;13.73;11.55;;;-0.50;75.00;;;;;;5094657;27;20872;-74
2022/12/18 10:44:29;;;;;;;13.73;12.32;;;-0.40;74.80;;;;;;5095068;27;20437;-74
2022/12/18 10:47:04;;;;;;;11.85;10.75;;;-0.30;75.40;;;;;;5102448;27;20881;-74
2022/12/18 10:49:33;;;;;;;12.50;11.20;;;-0.20;74.10;;;;;;5096802;28;20433;-72
2022/12/18 10:52:11;;;;;;;12.70;11.40;;;-0.20;74.30;;;;;;5097782;27;20399;-74
2022/12/18 10:54:39;;;;;;;12.55;11.25;;;-0.20;73.70;;;;;;5091186;28;20426;-72
2022/12/18 10:57:16;;;;;;;12.60;11.30;;;-0.20;73.80;;;;;;5096474;28;20428;-72
2022/12/18 10:59:54;;;;;;;13.25;11.20;;;-0.20;73.50;;;;;;5097672;28;20413;-75
2022/12/18 11:02:33;;;;;;;11.93;10.48;;;-0.30;73.40;;;;;;5097189;28;20437;-73
2022/12/18 11:05:00;;;;;;;12.48;11.15;;;-0.30;73.50;;;;;;5096146;28;20424;-72
2022/12/18 11:07:58;;;;;;;13.30;11.30;;;-0.30;73.20;;;;;;5101134;28;20425;-73
2022/12/18 11:10:29;;;;;;;12.43;11.13;;;-0.30;73.20;;;;;;5099904;28;20428;-73
2022/12/18 11:12:56;;;;;;;13.77;11.70;;;-0.40;73.50;;;;;;5089397;28;20429;-73
2022/12/18 11:15:30;;;;;;;11.70;10.50;;;-0.40;73.60;;;;;;5091684;28;20898;-72
2022/12/18 11:17:58;;;;;;;14.27;12.02;;;-0.40;73.90;;;;;;5095248;28;20433;-73
2022/12/18 11:20:32;;;;;;;13.20;11.80;;;-0.40;73.50;;;;;;5100384;28;20431;-73
2022/12/18 11:23:01;;;;;;;12.88;11.57;;;-0.40;74.20;;;;;;5114942;28;20443;-73
2022/12/18 11:25:28;;;;;;;13.25;11.35;;;-0.30;73.20;;;;;;5112989;28;20973;-73
2022/12/18 11:27:57;;;;;;;13.75;11.93;;;-0.40;74.10;;;;;;5109900;28;20750;-71
2022/12/18 11:30:28;;;;;;;13.73;12.02;;;-0.30;73.50;;;;;;5091266;28;20429;-72
2022/12/18 11:33:00;;;;;;;13.65;12.25;;;-0.30;73.80;;;;;;5089550;28;20804;-73
2022/12/18 11:35:44;;;;;;;13.00;11.60;;;-0.30;73.80;;;;;;5100225;28;20533;-71
2022/12/18 11:38:20;;;;;;;13.88;12.38;;;-0.30;72.80;;;;;;5098054;28;20459;-71
2022/12/18 11:40:54;;;;;;;13.13;11.73;;;-0.30;73.30;;;;;;5090552;28;20424;-73
2022/12/18 11:43:26;;;;;;;14.80;11.90;;;-0.20;73.30;;;;;;5103708;28;20473;-73
2022/12/18 11:46:00;;;;;;;13.68;11.32;;;-0.30;73.20;;;;;;5092389;28;20492;-73
2022/12/18 11:48:29;;;;;;;14.05;11.98;;;-0.20;73.00;;;;;;5105123;27;20420;-71
2022/12/18 11:50:58;;;;;;;13.50;12.05;;;-0.30;73.00;;;;;;5102990;28;20861;-73
2022/12/18 11:53:26;;;;;;;12.50;11.05;;;-0.30;73.50;;;;;;5088502;27;20448;-74
2022/12/18 11:56:06;;;;;;;13.57;12.17;;;-0.40;72.80;;;;;;5099133;28;20441;-73
2022/12/18 11:58:47;;;;;;;13.35;11.18;;;-0.50;74.00;;;;;;5092077;28;20518;-73
2022/12/18 12:01:32;;;;;;;14.13;12.65;;;-0.50;74.10;;;;;;5096521;28;20527;-72
2022/12/18 12:04:24;;;;;;;14.18;12.20;;;-0.60;74.70;;;;;;5109668;22;20446;-66
2022/12/18 12:07:00;;;;;;;13.65;12.13;;;-0.50;74.20;;;;;;5104102;28;20424;-68
2022/12/18 12:09:33;;;;;;;13.45;11.75;;;-0.60;74.80;;;;;;5099571;28;20428;-65
2022/12/18 12:12:14;;;;;;;14.70;13.10;;;-0.60;75.00;;;;;;5100609;28;20432;-69
2022/12/18 12:14:52;;;;;;;13.95;12.38;;;-0.60;75.20;;;;;;5079951;28;20438;-68
2022/12/18 12:17:29;;;;;;;13.30;11.90;;;-0.60;75.30;;;;;;5085732;28;20424;-68
2022/12/18 12:20:03;;;;;;;13.73;12.20;;;-0.60;75.00;;;;;;5086670;28;20495;-74
2022/12/18 12:22:37;;;;;;;14.00;12.50;;;-0.60;75.20;;;;;;5089047;28;20438;-71
2022/12/18 12:25:20;;;;;;;13.02;11.57;;;-0.60;74.90;;;;;;5084106;28;20435;-71
2022/12/18 12:27:55;;;;;;;15.77;12.93;;;-0.70;74.90;;;;;;5083232;28;20928;-70
2022/12/18 12:30:25;;;;;;;13.02;11.73;;;-0.70;75.30;;;;;;5081178;28;20425;-67
2022/12/18 12:33:09;;;;;;;14.07;12.60;;;-0.70;75.30;;;;;;5077098;28;20498;-68
2022/12/18 12:35:47;;;;;;;13.90;12.40;;;-0.70;75.70;;;;;;5089761;28;20442;-67
2022/12/18 12:38:19;;;;;;;15.20;12.50;;;-0.70;75.60;;;;;;5092045;28;20428;-67
2022/12/18 12:40:50;;;;;;;14.73;13.23;;;-0.70;75.60;;;;;;5079476;28;20435;-67
2022/12/18 12:43:33;;;;;;;17.10;12.70;;;-0.60;75.50;;;;;;5071359;28;20422;-68
2022/12/18 12:46:05;;;;;;;15.20;13.60;;;-0.60;75.00;;;;;;5073784;28;20797;-69
2022/12/18 12:48:42;;;;;;;15.50;13.37;;;-0.60;75.40;;;;;;5087451;28;20411;-69